Odyssey III — WCT5769 — position and weather

sailwx.info

Track history (hours):
 
Tides and Currents Weather Stations Pressure Air Temp Water Temp Dewpoint Dewpoint Depression Visibility Wind Speed Wind Dir Waves Ship Positions

Odyssey III

Owner: ODYSSEY CRUISES, WASHINGTON, DC. More information available from US FCC via Universal Licensing System and Coast Guard Vessel Documentation Center.

Last reported at 2018-Jul-23 00:26 UTC. Time now 2018-Jul-23 07:35 UTC.
Position N 38°52' W 077°01'.

Length 73 m; draft 2 m.

Type: Passenger vessel. MMSI: 367055340.

Date/timePositionNaut miles runAvg speedWind from/ knotsBaromVisibWave heightAir tempDewpointWater temp
2018-Jul-23 00:26N 38°52' W 077°01'2 3.9
2018-Jul-22 23:58N 38°51' W 077°01'2 5.3
2018-Jul-22 23:30N 38°48' W 077°02'2 4.7
2018-Jul-22 23:00N 38°51' W 077°01'1 1.9
2018-Jul-22 22:30N 38°51' W 077°02'1 2.1
2018-Jul-22 22:00N 38°52' W 077°01'0 0.0
2018-Jul-22 21:30N 38°52' W 077°01'0 0.0
2018-Jul-22 20:57N 38°52' W 077°01'0 0.0
2018-Jul-22 20:30N 38°52' W 077°01'0 0.0
2018-Jul-22 20:00N 38°52' W 077°01'0 0.0
2018-Jul-22 19:30N 38°52' W 077°01'0 0.0
2018-Jul-22 19:00N 38°52' W 077°01'0 0.0
2018-Jul-22 18:30N 38°52' W 077°01'0 0.0
2018-Jul-22 18:00N 38°52' W 077°01'0 0.1
2018-Jul-22 17:28N 38°52' W 077°01'3 6.5
2018-Jul-22 16:57N 38°49' W 077°02'2 3.4
2018-Jul-22 16:30N 38°51' W 077°01'1 2.0
2018-Jul-22 16:00N 38°52' W 077°02'1 1.0
2018-Jul-22 15:00N 38°52' W 077°01'0 0.0
2018-Jul-22 14:30N 38°52' W 077°01'0 0.0
2018-Jul-22 14:00N 38°52' W 077°01'0 0.0
2018-Jul-22 13:27N 38°52' W 077°01'0 0.0
2018-Jul-22 13:00N 38°52' W 077°01'0 0.0
2018-Jul-22 12:30N 38°52' W 077°01'0 0.0
2018-Jul-22 12:00N 38°52' W 077°01'0 0.0
2018-Jul-22 03:02N 38°52' W 077°01'0 0.1
2018-Jul-22 02:59N 38°52' W 077°01'2 4.1
2018-Jul-22 02:30N 38°50' W 077°01'2 4.4
2018-Jul-22 02:00N 38°48' W 077°02'2 3.1
2018-Jul-22 01:30N 38°50' W 077°02'2 4.1
2018-Jul-22 01:00N 38°52' W 077°02'1 1.2
2018-Jul-22 00:30N 38°52' W 077°01'0 0.1
2018-Jul-22 00:00N 38°52' W 077°01'0 0.0
2018-Jul-21 23:30N 38°52' W 077°01'0 0.0
2018-Jul-21 23:00N 38°52' W 077°01'0 0.0
2018-Jul-21 22:27N 38°52' W 077°01'0 0.0
2018-Jul-21 22:00N 38°52' W 077°01'0 0.0
2018-Jul-21 21:24N 38°52' W 077°01'0 0.0
2018-Jul-21 21:00N 38°52' W 077°01'0 0.0
2018-Jul-21 20:30N 38°52' W 077°01'0 0.0
2018-Jul-21 20:00N 38°52' W 077°01'0 0.0
2018-Jul-21 19:30N 38°52' W 077°01'0 0.0
2018-Jul-21 19:00N 38°52' W 077°01'0 0.0
2018-Jul-21 18:30N 38°52' W 077°01'0 0.0
2018-Jul-21 18:00N 38°52' W 077°01'0 0.0
2018-Jul-21 17:30N 38°52' W 077°01'2 5.0
2018-Jul-21 17:00N 38°50' W 077°02'1 2.3
2018-Jul-21 16:28N 38°51' W 077°01'0 0.4
2018-Jul-21 16:01N 38°51' W 077°02'1 2.2
2018-Jul-21 15:28N 38°52' W 077°01'0 0.0
2018-Jul-21 14:55N 38°52' W 077°01'0 0.0
2018-Jul-21 14:28N 38°52' W 077°01'0 0.0
2018-Jul-21 13:29N 38°52' W 077°01'0 0.0
2018-Jul-21 12:58N 38°52' W 077°01'0 0.0
2018-Jul-21 12:28N 38°52' W 077°01'0 0.0
2018-Jul-21 11:58N 38°52' W 077°01'0 0.0
2018-Jul-21 11:28N 38°52' W 077°01'0 0.0
2018-Jul-21 10:58N 38°52' W 077°01'0 0.0
2018-Jul-21 10:28N 38°52' W 077°01'0 0.0
2018-Jul-21 09:59N 38°52' W 077°01'0 0.0
2018-Jul-21 09:23N 38°52' W 077°01'0 0.0
2018-Jul-21 08:55N 38°52' W 077°01'0 0.0
2018-Jul-21 08:29N 38°52' W 077°01'0 0.0
2018-Jul-21 07:58N 38°52' W 077°01'0 0.0
2018-Jul-21 07:25N 38°52' W 077°01'0 0.0
2018-Jul-21 06:55N 38°52' W 077°01'0 0.0
2018-Jul-21 06:29N 38°52' W 077°01'0 0.0
2018-Jul-21 05:58N 38°52' W 077°01'0 0.0
2018-Jul-21 05:29N 38°52' W 077°01'0 0.0
2018-Jul-21 04:55N 38°52' W 077°01'0 0.0
2018-Jul-21 04:29N 38°52' W 077°01'0 0.0
2018-Jul-21 03:58N 38°52' W 077°01'0 0.0
2018-Jul-21 03:28N 38°52' W 077°01'0 0.0
2018-Jul-21 02:59N 38°52' W 077°01'1 2.6
2018-Jul-21 02:29N 38°51' W 077°01'2 3.8
2018-Jul-21 01:56N 38°53' W 077°03'1 3.2
2018-Jul-21 01:28N 38°54' W 077°04'2 3.3
2018-Jul-21 01:00N 38°53' W 077°03'2 4.1
2018-Jul-21 00:30N 38°51' W 077°01'1 2.4
2018-Jul-20 23:57N 38°52' W 077°01'0 0.0
2018-Jul-20 23:26N 38°52' W 077°01'0 0.0
2018-Jul-20 22:59N 38°52' W 077°01'0 0.0
2018-Jul-20 22:28N 38°52' W 077°01'0 0.0
2018-Jul-20 21:59N 38°52' W 077°01'0 0.0
2018-Jul-20 21:29N 38°52' W 077°01'0 0.0
2018-Jul-20 20:58N 38°52' W 077°01'0 0.0
2018-Jul-20 20:30N 38°52' W 077°01'0 0.0
2018-Jul-20 19:56N 38°52' W 077°01'0 0.0
2018-Jul-20 19:27N 38°52' W 077°01'0 0.0
2018-Jul-20 18:58N 38°52' W 077°01'0 0.0
2018-Jul-20 18:26N 38°52' W 077°01'0 0.0
2018-Jul-20 18:00N 38°52' W 077°01'1 2.1
2018-Jul-20 17:30N 38°51' W 077°01'1 1.2
2018-Jul-20 16:58N 38°51' W 077°01'1 1.4
2018-Jul-20 16:29N 38°52' W 077°02'1 1.8
2018-Jul-20 15:56N 38°52' W 077°01'0 0.0
2018-Jul-20 15:28N 38°52' W 077°01'0 0.0
2018-Jul-20 14:59N 38°52' W 077°01'0 0.0
2018-Jul-20 14:30N 38°52' W 077°01'0 0.0
2018-Jul-20 13:58N 38°52' W 077°01'0 0.0
2018-Jul-20 13:28N 38°52' W 077°01'0 0.0
2018-Jul-20 12:55N 38°52' W 077°01'0 0.0
2018-Jul-20 12:27N 38°52' W 077°01'0 0.0
2018-Jul-20 11:59N 38°52' W 077°01'0 0.0
2018-Jul-20 11:27N 38°52' W 077°01'0 0.0
2018-Jul-20 01:53N 38°52' W 077°01'1 2.0
2018-Jul-20 01:30N 38°52' W 077°01'0 0.8
2018-Jul-20 01:00N 38°51' W 077°02'2 4.0
2018-Jul-20 00:29N 38°53' W 077°03'1 1.4
2018-Jul-19 23:59N 38°54' W 077°03'2 4.9
2018-Jul-19 23:30N 38°52' W 077°02'1 1.4
2018-Jul-19 22:59N 38°52' W 077°01'0 0.0
2018-Jul-19 22:29N 38°52' W 077°01'0 0.0
2018-Jul-19 21:59N 38°52' W 077°01'0 0.0
2018-Jul-19 21:29N 38°52' W 077°01'0 0.0
2018-Jul-19 20:56N 38°52' W 077°01'0 0.0
2018-Jul-19 20:29N 38°52' W 077°01'0 0.0
2018-Jul-19 19:59N 38°52' W 077°01'0 0.0
2018-Jul-19 19:26N 38°52' W 077°01'0 0.0
2018-Jul-19 18:59N 38°52' W 077°01'0 0.0
2018-Jul-19 18:29N 38°52' W 077°01'0 0.0
2018-Jul-19 17:59N 38°52' W 077°01'2 3.7
2018-Jul-19 17:30N 38°51' W 077°01'1 1.9
2018-Jul-19 17:01N 38°50' W 077°02'2 4.2
2018-Jul-19 16:30N 38°52' W 077°02'1 1.2
2018-Jul-19 15:55N 38°52' W 077°01'0 0.0
2018-Jul-19 15:29N 38°52' W 077°01'0 0.0
2018-Jul-19 14:55N 38°52' W 077°01'0 0.0
2018-Jul-19 14:28N 38°52' W 077°01'0 0.0
2018-Jul-19 13:28N 38°52' W 077°01'0 0.0
2018-Jul-19 12:58N 38°52' W 077°01'0 0.0
2018-Jul-19 12:28N 38°52' W 077°01'0 0.0
2018-Jul-19 11:58N 38°52' W 077°01'0 0.0
2018-Jul-19 11:28N 38°52' W 077°01'0 0.0
2018-Jul-19 10:55N 38°52' W 077°01'0 0.0
2018-Jul-19 10:28N 38°52' W 077°01'0 0.0
2018-Jul-19 09:58N 38°52' W 077°01'0 0.0
2018-Jul-19 09:28N 38°52' W 077°01'0 0.0
2018-Jul-19 08:58N 38°52' W 077°01'0 0.0
2018-Jul-19 08:28N 38°52' W 077°01'0 0.0
2018-Jul-19 07:58N 38°52' W 077°01'0 0.0
2018-Jul-19 07:25N 38°52' W 077°01'0 0.0
2018-Jul-19 06:58N 38°52' W 077°01'0 0.0
2018-Jul-19 06:25N 38°52' W 077°01'0 0.0
2018-Jul-19 05:58N 38°52' W 077°01'0 0.0
2018-Jul-19 05:25N 38°52' W 077°01'0 0.0
2018-Jul-19 04:58N 38°52' W 077°01'0 0.0
2018-Jul-19 04:28N 38°52' W 077°01'0 0.0
2018-Jul-19 03:58N 38°52' W 077°01'0 0.0
2018-Jul-19 03:28N 38°52' W 077°01'0 0.0
2018-Jul-19 02:55N 38°52' W 077°01'0 0.0
2018-Jul-19 02:25N 38°52' W 077°01'0 0.1
2018-Jul-19 01:53N 38°52' W 077°01'1 2.6
2018-Jul-19 01:30N 38°51' W 077°01'1 2.7
2018-Jul-19 01:00N 38°52' W 077°02'2 4.5
2018-Jul-19 00:27N 38°54' W 077°05'2 3.3
2018-Jul-18 23:56N 38°53' W 077°03'2 3.9
2018-Jul-18 23:29N 38°52' W 077°02'1 1.7
2018-Jul-18 22:58N 38°53' W 077°01'0 0.0
2018-Jul-18 22:30N 38°52' W 077°01'0 0.0
2018-Jul-18 21:58N 38°52' W 077°01'0 0.0
2018-Jul-18 21:29N 38°52' W 077°01'0 0.0
2018-Jul-18 20:58N 38°52' W 077°01'0 0.0
2018-Jul-18 01:25N 38°52' W 077°01'1 2.9
2018-Jul-18 01:00N 38°51' W 077°01'1 2.6
2018-Jul-18 00:29N 38°52' W 077°02'2 3.6
2018-Jul-18 00:00N 38°54' W 077°03'2 4.0
2018-Jul-17 23:26N 38°52' W 077°02'1 1.4
2018-Jul-17 22:58N 38°52' W 077°01'0 0.0
2018-Jul-17 22:27N 38°52' W 077°01'0 0.0
2018-Jul-17 21:56N 38°52' W 077°01'0 0.0
2018-Jul-17 21:30N 38°52' W 077°01'0 0.0
2018-Jul-17 20:57N 38°52' W 077°01'0 0.0
2018-Jul-17 20:29N 38°52' W 077°01'0 0.0
2018-Jul-17 19:57N 38°52' W 077°01'0 0.0
2018-Jul-17 19:28N 38°52' W 077°01'0 0.0
2018-Jul-17 19:00N 38°52' W 077°01'0 0.0
2018-Jul-17 18:28N 38°52' W 077°01'0 0.0
2018-Jul-17 17:59N 38°52' W 077°01'2 3.3
2018-Jul-17 17:30N 38°51' W 077°01'1 2.2
2018-Jul-17 17:00N 38°50' W 077°02'2 4.1
2018-Jul-17 16:29N 38°52' W 077°02'1 1.3
2018-Jul-17 15:58N 38°52' W 077°01'0 0.0
2018-Jul-17 15:28N 38°52' W 077°01'0 0.0
2018-Jul-17 14:58N 38°52' W 077°01'0 0.0
2018-Jul-17 14:26N 38°52' W 077°01'0 0.0
2018-Jul-17 13:56N 38°52' W 077°01'0 0.0
2018-Jul-17 13:29N 38°52' W 077°01'0 0.0
2018-Jul-17 12:58N 38°52' W 077°01'0 0.0
2018-Jul-17 12:30N 38°52' W 077°01'0 0.0
2018-Jul-17 11:56N 38°52' W 077°01'0 0.0
2018-Jul-17 01:16N 38°52' W 077°01'0 0.0
2018-Jul-17 00:57N 38°52' W 077°01'1 2.7
2018-Jul-17 00:29N 38°51' W 077°01'0 0.3
2018-Jul-16 23:29N 38°52' W 077°02'1 1.6
2018-Jul-16 22:54N 38°52' W 077°01'0 0.0
2018-Jul-16 22:28N 38°52' W 077°01'0 0.0
2018-Jul-16 21:59N 38°52' W 077°01'0 0.0
2018-Jul-16 21:27N 38°52' W 077°01'0 0.0
2018-Jul-16 20:57N 38°52' W 077°01'0 0.0
2018-Jul-16 20:29N 38°52' W 077°01'0 0.0
2018-Jul-16 19:59N 38°52' W 077°01'0 0.0
2018-Jul-16 19:29N 38°52' W 077°01'0 0.0
2018-Jul-16 18:58N 38°52' W 077°01'0 0.0
2018-Jul-16 18:29N 38°52' W 077°01'0 0.0
2018-Jul-16 17:59N 38°52' W 077°01'0 0.0
2018-Jul-16 17:29N 38°52' W 077°01'0 0.0
2018-Jul-16 16:59N 38°52' W 077°01'0 0.0
2018-Jul-16 16:26N 38°52' W 077°01'0 0.0
2018-Jul-16 15:59N 38°52' W 077°01'0 0.2
2018-Jul-16 15:28N 38°52' W 077°01'0 0.1
2018-Jul-16 15:00N 38°52' W 077°01'0 0.0
2018-Jul-16 14:31N 38°52' W 077°01'0 0.0
2018-Jul-16 14:00N 38°52' W 077°01'0 0.1
2018-Jul-16 13:29N 38°52' W 077°01'0 0.0
2018-Jul-16 12:59N 38°52' W 077°01'0 0.0
2018-Jul-16 12:30N 38°52' W 077°01'0 0.1
2018-Jul-16 11:58N 38°52' W 077°01'0 0.0
2018-Jul-16 11:27N 38°52' W 077°01'0 0.0
2018-Jul-16 10:55N 38°52' W 077°01'0 0.0
2018-Jul-16 10:28N 38°52' W 077°01'0 0.0
2018-Jul-16 09:56N 38°52' W 077°01'0 0.0
2018-Jul-16 09:29N 38°52' W 077°01'0 0.0
2018-Jul-16 09:00N 38°52' W 077°01'0 0.0
2018-Jul-16 08:30N 38°52' W 077°01'0 0.0
2018-Jul-16 07:58N 38°52' W 077°01'0 0.0
2018-Jul-16 07:30N 38°52' W 077°01'0 0.0
2018-Jul-16 06:58N 38°52' W 077°01'0 0.0
2018-Jul-16 06:29N 38°52' W 077°01'0 0.0
2018-Jul-16 06:01N 38°52' W 077°01'0 0.0
2018-Jul-16 05:28N 38°52' W 077°01'0 0.0
2018-Jul-16 04:55N 38°52' W 077°01'0 0.0
2018-Jul-16 04:30N 38°52' W 077°01'0 0.0
2018-Jul-16 03:59N 38°52' W 077°01'0 0.0
2018-Jul-16 03:27N 38°52' W 077°01'0 0.0
2018-Jul-16 02:58N 38°52' W 077°01'0 0.0
2018-Jul-16 02:29N 38°52' W 077°01'0 0.0
2018-Jul-16 01:57N 38°52' W 077°01'0 0.0
2018-Jul-16 01:29N 38°52' W 077°01'0 0.0
2018-Jul-16 00:58N 38°52' W 077°01'1 2.4
2018-Jul-16 00:28N 38°51' W 077°01'1 2.4
2018-Jul-15 23:59N 38°52' W 077°02'2 4.4
2018-Jul-15 23:27N 38°54' W 077°04'1 1.6
2018-Jul-15 23:00N 38°53' W 077°03'3 5.8
2018-Jul-15 22:31N 38°51' W 077°01'1 2.2
2018-Jul-15 21:57N 38°52' W 077°01'0 0.0
2018-Jul-15 21:29N 38°52' W 077°01'0 0.0
2018-Jul-15 21:00N 38°52' W 077°01'0 0.0
2018-Jul-15 20:28N 38°52' W 077°01'0 0.0
2018-Jul-15 19:59N 38°52' W 077°01'0 0.0
2018-Jul-15 19:27N 38°52' W 077°01'0 0.0
2018-Jul-15 18:55N 38°52' W 077°01'0 0.0
2018-Jul-15 18:26N 38°52' W 077°01'0 0.0
2018-Jul-15 17:56N 38°52' W 077°01'0 0.0
2018-Jul-15 17:26N 38°52' W 077°01'2 4.4
2018-Jul-15 16:59N 38°51' W 077°01'1 2.0
2018-Jul-15 16:28N 38°50' W 077°02'2 4.3
2018-Jul-15 15:58N 38°52' W 077°02'1 1.5
2018-Jul-15 15:26N 38°52' W 077°01'0 0.0
2018-Jul-15 15:00N 38°52' W 077°01'0 0.0
2018-Jul-15 14:25N 38°52' W 077°01'0 0.0
2018-Jul-15 13:56N 38°52' W 077°01'0 0.0
2018-Jul-15 13:27N 38°52' W 077°01'0 0.0
2018-Jul-15 12:59N 38°52' W 077°01'0 0.0
2018-Jul-15 12:30N 38°52' W 077°01'0 0.0
2018-Jul-15 03:10N 38°52' W 077°01'0 0.0
2018-Jul-15 03:00N 38°52' W 077°01'1 1.9
2018-Jul-15 02:29N 38°51' W 077°01'2 4.9
2018-Jul-15 02:00N 38°49' W 077°02'1 2.4
2018-Jul-15 01:30N 38°48' W 077°02'3 6.8
2018-Jul-15 01:00N 38°51' W 077°01'0 0.4
2018-Jul-15 00:30N 38°51' W 077°01'1 2.2
2018-Jul-14 23:59N 38°52' W 077°01'0 0.0
2018-Jul-14 23:29N 38°52' W 077°01'0 0.0
2018-Jul-14 23:00N 38°52' W 077°01'0 0.0
2018-Jul-14 22:09N 38°52' W 077°01'0 0.0
2018-Jul-14 21:56N 38°52' W 077°01'0 0.0
2018-Jul-14 21:26N 38°52' W 077°01'0 0.0
2018-Jul-14 20:56N 38°52' W 077°01'0 0.0
2018-Jul-14 20:27N 38°52' W 077°01'0 0.0
2018-Jul-14 19:56N 38°52' W 077°01'0 0.0
2018-Jul-14 19:26N 38°52' W 077°01'0 0.0
2018-Jul-14 18:56N 38°52' W 077°01'0 0.0
2018-Jul-14 18:29N 38°52' W 077°01'0 0.0
2018-Jul-14 18:00N 38°52' W 077°01'0 0.0
2018-Jul-14 17:27N 38°52' W 077°01'1 1.7
2018-Jul-14 17:00N 38°52' W 077°02'2 4.2
2018-Jul-14 16:28N 38°54' W 077°03'3 5.9
2018-Jul-14 16:00N 38°51' W 077°02'1 2.2
2018-Jul-14 15:30N 38°52' W 077°01'0 0.0
2018-Jul-14 15:00N 38°52' W 077°01'0 0.0
2018-Jul-14 14:30N 38°52' W 077°01'0 0.0
2018-Jul-14 13:30N 38°52' W 077°01'0 0.0
2018-Jul-14 13:00N 38°52' W 077°01'0 0.0
2018-Jul-14 12:30N 38°52' W 077°01'0 0.0
2018-Jul-14 12:00N 38°52' W 077°01'0 0.0
2018-Jul-14 02:50N 38°52' W 077°01'2 4.9
2018-Jul-14 02:26N 38°51' W 077°01'3 6.7
2018-Jul-14 02:00N 38°48' W 077°02'2 2.8
2018-Jul-14 01:27N 38°49' W 077°02'2 5.4
2018-Jul-14 01:00N 38°52' W 077°02'1 1.1
2018-Jul-14 00:30N 38°51' W 077°01'1 2.4
2018-Jul-14 00:00N 38°52' W 077°01'0 0.0
2018-Jul-13 23:29N 38°52' W 077°01'0 0.0
2018-Jul-13 22:55N 38°52' W 077°01'0 0.0
2018-Jul-13 22:30N 38°52' W 077°01'0 0.0
2018-Jul-13 21:56N 38°52' W 077°01'0 0.0
2018-Jul-13 21:28N 38°52' W 077°01'0 0.0
2018-Jul-13 21:00N 38°52' W 077°01'0 0.0
2018-Jul-13 20:30N 38°52' W 077°01'  
Track history (hours):
 
Tides and Currents Weather Stations Pressure Air Temp Water Temp Dewpoint Dewpoint Depression Visibility Wind Speed Wind Dir Waves Ship Positions

Odyssey III

Owner: ODYSSEY CRUISES, WASHINGTON, DC. More information available from US FCC via Universal Licensing System and Coast Guard Vessel Documentation Center.

Last reported at 2018-Jul-23 00:26 UTC. Time now 2018-Jul-23 07:35 UTC.
Position N 38°52' W 077°01'.

Length 73 m; draft 2 m.

Type: Passenger vessel. MMSI: 367055340.

Date/timePositionNaut miles runAvg speedWind from/ knotsBaromVisibWave heightAir tempDewpointWater temp
2018-Jul-23 00:26N 38°52' W 077°01'2 3.9
2018-Jul-22 23:58N 38°51' W 077°01'2 5.3
2018-Jul-22 23:30N 38°48' W 077°02'2 4.7
2018-Jul-22 23:00N 38°51' W 077°01'1 1.9
2018-Jul-22 22:30N 38°51' W 077°02'1 2.1
2018-Jul-22 22:00N 38°52' W 077°01'0 0.0
2018-Jul-22 21:30N 38°52' W 077°01'0 0.0
2018-Jul-22 20:57N 38°52' W 077°01'0 0.0
2018-Jul-22 20:30N 38°52' W 077°01'0 0.0
2018-Jul-22 20:00N 38°52' W 077°01'0 0.0
2018-Jul-22 19:30N 38°52' W 077°01'0 0.0
2018-Jul-22 19:00N 38°52' W 077°01'0 0.0
2018-Jul-22 18:30N 38°52' W 077°01'0 0.0
2018-Jul-22 18:00N 38°52' W 077°01'0 0.1
2018-Jul-22 17:28N 38°52' W 077°01'3 6.5
2018-Jul-22 16:57N 38°49' W 077°02'2 3.4
2018-Jul-22 16:30N 38°51' W 077°01'1 2.0
2018-Jul-22 16:00N 38°52' W 077°02'1 1.0
2018-Jul-22 15:00N 38°52' W 077°01'0 0.0
2018-Jul-22 14:30N 38°52' W 077°01'0 0.0
2018-Jul-22 14:00N 38°52' W 077°01'0 0.0
2018-Jul-22 13:27N 38°52' W 077°01'0 0.0
2018-Jul-22 13:00N 38°52' W 077°01'0 0.0
2018-Jul-22 12:30N 38°52' W 077°01'0 0.0
2018-Jul-22 12:00N 38°52' W 077°01'0 0.0
2018-Jul-22 03:02N 38°52' W 077°01'0 0.1
2018-Jul-22 02:59N 38°52' W 077°01'2 4.1
2018-Jul-22 02:30N 38°50' W 077°01'2 4.4
2018-Jul-22 02:00N 38°48' W 077°02'2 3.1
2018-Jul-22 01:30N 38°50' W 077°02'2 4.1
2018-Jul-22 01:00N 38°52' W 077°02'1 1.2
2018-Jul-22 00:30N 38°52' W 077°01'0 0.1
2018-Jul-22 00:00N 38°52' W 077°01'0 0.0
2018-Jul-21 23:30N 38°52' W 077°01'0 0.0
2018-Jul-21 23:00N 38°52' W 077°01'0 0.0
2018-Jul-21 22:27N 38°52' W 077°01'0 0.0
2018-Jul-21 22:00N 38°52' W 077°01'0 0.0
2018-Jul-21 21:24N 38°52' W 077°01'0 0.0
2018-Jul-21 21:00N 38°52' W 077°01'0 0.0
2018-Jul-21 20:30N 38°52' W 077°01'0 0.0
2018-Jul-21 20:00N 38°52' W 077°01'0 0.0
2018-Jul-21 19:30N 38°52' W 077°01'0 0.0
2018-Jul-21 19:00N 38°52' W 077°01'0 0.0
2018-Jul-21 18:30N 38°52' W 077°01'0 0.0
2018-Jul-21 18:00N 38°52' W 077°01'0 0.0
2018-Jul-21 17:30N 38°52' W 077°01'2 5.0
2018-Jul-21 17:00N 38°50' W 077°02'1 2.3
2018-Jul-21 16:28N 38°51' W 077°01'0 0.4
2018-Jul-21 16:01N 38°51' W 077°02'1 2.2
2018-Jul-21 15:28N 38°52' W 077°01'0 0.0
2018-Jul-21 14:55N 38°52' W 077°01'0 0.0
2018-Jul-21 14:28N 38°52' W 077°01'0 0.0
2018-Jul-21 13:29N 38°52' W 077°01'0 0.0
2018-Jul-21 12:58N 38°52' W 077°01'0 0.0
2018-Jul-21 12:28N 38°52' W 077°01'0 0.0
2018-Jul-21 11:58N 38°52' W 077°01'0 0.0
2018-Jul-21 11:28N 38°52' W 077°01'0 0.0
2018-Jul-21 10:58N 38°52' W 077°01'0 0.0
2018-Jul-21 10:28N 38°52' W 077°01'0 0.0
2018-Jul-21 09:59N 38°52' W 077°01'0 0.0
2018-Jul-21 09:23N 38°52' W 077°01'0 0.0
2018-Jul-21 08:55N 38°52' W 077°01'0 0.0
2018-Jul-21 08:29N 38°52' W 077°01'0 0.0
2018-Jul-21 07:58N 38°52' W 077°01'0 0.0
2018-Jul-21 07:25N 38°52' W 077°01'0 0.0
2018-Jul-21 06:55N 38°52' W 077°01'0 0.0
2018-Jul-21 06:29N 38°52' W 077°01'0 0.0
2018-Jul-21 05:58N 38°52' W 077°01'0 0.0
2018-Jul-21 05:29N 38°52' W 077°01'0 0.0
2018-Jul-21 04:55N 38°52' W 077°01'0 0.0
2018-Jul-21 04:29N 38°52' W 077°01'0 0.0
2018-Jul-21 03:58N 38°52' W 077°01'0 0.0
2018-Jul-21 03:28N 38°52' W 077°01'0 0.0
2018-Jul-21 02:59N 38°52' W 077°01'1 2.6
2018-Jul-21 02:29N 38°51' W 077°01'2 3.8
2018-Jul-21 01:56N 38°53' W 077°03'1 3.2
2018-Jul-21 01:28N 38°54' W 077°04'2 3.3
2018-Jul-21 01:00N 38°53' W 077°03'2 4.1
2018-Jul-21 00:30N 38°51' W 077°01'1 2.4
2018-Jul-20 23:57N 38°52' W 077°01'0 0.0
2018-Jul-20 23:26N 38°52' W 077°01'0 0.0
2018-Jul-20 22:59N 38°52' W 077°01'0 0.0
2018-Jul-20 22:28N 38°52' W 077°01'0 0.0
2018-Jul-20 21:59N 38°52' W 077°01'0 0.0
2018-Jul-20 21:29N 38°52' W 077°01'0 0.0
2018-Jul-20 20:58N 38°52' W 077°01'0 0.0
2018-Jul-20 20:30N 38°52' W 077°01'0 0.0
2018-Jul-20 19:56N 38°52' W 077°01'0 0.0
2018-Jul-20 19:27N 38°52' W 077°01'0 0.0
2018-Jul-20 18:58N 38°52' W 077°01'0 0.0
2018-Jul-20 18:26N 38°52' W 077°01'0 0.0
2018-Jul-20 18:00N 38°52' W 077°01'1 2.1
2018-Jul-20 17:30N 38°51' W 077°01'1 1.2
2018-Jul-20 16:58N 38°51' W 077°01'1 1.4
2018-Jul-20 16:29N 38°52' W 077°02'1 1.8
2018-Jul-20 15:56N 38°52' W 077°01'0 0.0
2018-Jul-20 15:28N 38°52' W 077°01'0 0.0
2018-Jul-20 14:59N 38°52' W 077°01'0 0.0
2018-Jul-20 14:30N 38°52' W 077°01'0 0.0
2018-Jul-20 13:58N 38°52' W 077°01'0 0.0
2018-Jul-20 13:28N 38°52' W 077°01'0 0.0
2018-Jul-20 12:55N 38°52' W 077°01'0 0.0
2018-Jul-20 12:27N 38°52' W 077°01'0 0.0
2018-Jul-20 11:59N 38°52' W 077°01'0 0.0
2018-Jul-20 11:27N 38°52' W 077°01'0 0.0
2018-Jul-20 01:53N 38°52' W 077°01'1 2.0
2018-Jul-20 01:30N 38°52' W 077°01'0 0.8
2018-Jul-20 01:00N 38°51' W 077°02'2 4.0
2018-Jul-20 00:29N 38°53' W 077°03'1 1.4
2018-Jul-19 23:59N 38°54' W 077°03'2 4.9
2018-Jul-19 23:30N 38°52' W 077°02'1 1.4
2018-Jul-19 22:59N 38°52' W 077°01'0 0.0
2018-Jul-19 22:29N 38°52' W 077°01'0 0.0
2018-Jul-19 21:59N 38°52' W 077°01'0 0.0
2018-Jul-19 21:29N 38°52' W 077°01'0 0.0
2018-Jul-19 20:56N 38°52' W 077°01'0 0.0
2018-Jul-19 20:29N 38°52' W 077°01'0 0.0
2018-Jul-19 19:59N 38°52' W 077°01'0 0.0
2018-Jul-19 19:26N 38°52' W 077°01'0 0.0
2018-Jul-19 18:59N 38°52' W 077°01'0 0.0
2018-Jul-19 18:29N 38°52' W 077°01'0 0.0
2018-Jul-19 17:59N 38°52' W 077°01'2 3.7
2018-Jul-19 17:30N 38°51' W 077°01'1 1.9
2018-Jul-19 17:01N 38°50' W 077°02'2 4.2
2018-Jul-19 16:30N 38°52' W 077°02'1 1.2
2018-Jul-19 15:55N 38°52' W 077°01'0 0.0
2018-Jul-19 15:29N 38°52' W 077°01'0 0.0
2018-Jul-19 14:55N 38°52' W 077°01'0 0.0
2018-Jul-19 14:28N 38°52' W 077°01'0 0.0
2018-Jul-19 13:28N 38°52' W 077°01'0 0.0
2018-Jul-19 12:58N 38°52' W 077°01'0 0.0
2018-Jul-19 12:28N 38°52' W 077°01'0 0.0
2018-Jul-19 11:58N 38°52' W 077°01'0 0.0
2018-Jul-19 11:28N 38°52' W 077°01'0 0.0
2018-Jul-19 10:55N 38°52' W 077°01'0 0.0
2018-Jul-19 10:28N 38°52' W 077°01'0 0.0
2018-Jul-19 09:58N 38°52' W 077°01'0 0.0
2018-Jul-19 09:28N 38°52' W 077°01'0 0.0
2018-Jul-19 08:58N 38°52' W 077°01'0 0.0
2018-Jul-19 08:28N 38°52' W 077°01'0 0.0
2018-Jul-19 07:58N 38°52' W 077°01'0 0.0
2018-Jul-19 07:25N 38°52' W 077°01'0 0.0
2018-Jul-19 06:58N 38°52' W 077°01'0 0.0
2018-Jul-19 06:25N 38°52' W 077°01'0 0.0
2018-Jul-19 05:58N 38°52' W 077°01'0 0.0
2018-Jul-19 05:25N 38°52' W 077°01'0 0.0
2018-Jul-19 04:58N 38°52' W 077°01'0 0.0
2018-Jul-19 04:28N 38°52' W 077°01'0 0.0
2018-Jul-19 03:58N 38°52' W 077°01'0 0.0
2018-Jul-19 03:28N 38°52' W 077°01'0 0.0
2018-Jul-19 02:55N 38°52' W 077°01'0 0.0
2018-Jul-19 02:25N 38°52' W 077°01'0 0.1
2018-Jul-19 01:53N 38°52' W 077°01'1 2.6
2018-Jul-19 01:30N 38°51' W 077°01'1 2.7
2018-Jul-19 01:00N 38°52' W 077°02'2 4.5
2018-Jul-19 00:27N 38°54' W 077°05'2 3.3
2018-Jul-18 23:56N 38°53' W 077°03'2 3.9
2018-Jul-18 23:29N 38°52' W 077°02'1 1.7
2018-Jul-18 22:58N 38°53' W 077°01'0 0.0
2018-Jul-18 22:30N 38°52' W 077°01'0 0.0
2018-Jul-18 21:58N 38°52' W 077°01'0 0.0
2018-Jul-18 21:29N 38°52' W 077°01'0 0.0
2018-Jul-18 20:58N 38°52' W 077°01'0 0.0
2018-Jul-18 01:25N 38°52' W 077°01'1 2.9
2018-Jul-18 01:00N 38°51' W 077°01'1 2.6
2018-Jul-18 00:29N 38°52' W 077°02'2 3.6
2018-Jul-18 00:00N 38°54' W 077°03'2 4.0
2018-Jul-17 23:26N 38°52' W 077°02'1 1.4
2018-Jul-17 22:58N 38°52' W 077°01'0 0.0
2018-Jul-17 22:27N 38°52' W 077°01'0 0.0
2018-Jul-17 21:56N 38°52' W 077°01'0 0.0
2018-Jul-17 21:30N 38°52' W 077°01'0 0.0
2018-Jul-17 20:57N 38°52' W 077°01'0 0.0
2018-Jul-17 20:29N 38°52' W 077°01'0 0.0
2018-Jul-17 19:57N 38°52' W 077°01'0 0.0
2018-Jul-17 19:28N 38°52' W 077°01'0 0.0
2018-Jul-17 19:00N 38°52' W 077°01'0 0.0
2018-Jul-17 18:28N 38°52' W 077°01'0 0.0
2018-Jul-17 17:59N 38°52' W 077°01'2 3.3
2018-Jul-17 17:30N 38°51' W 077°01'1 2.2
2018-Jul-17 17:00N 38°50' W 077°02'2 4.1
2018-Jul-17 16:29N 38°52' W 077°02'1 1.3
2018-Jul-17 15:58N 38°52' W 077°01'0 0.0
2018-Jul-17 15:28N 38°52' W 077°01'0 0.0
2018-Jul-17 14:58N 38°52' W 077°01'0 0.0
2018-Jul-17 14:26N 38°52' W 077°01'0 0.0
2018-Jul-17 13:56N 38°52' W 077°01'0 0.0
2018-Jul-17 13:29N 38°52' W 077°01'0 0.0
2018-Jul-17 12:58N 38°52' W 077°01'0 0.0
2018-Jul-17 12:30N 38°52' W 077°01'0 0.0
2018-Jul-17 11:56N 38°52' W 077°01'0 0.0
2018-Jul-17 01:16N 38°52' W 077°01'0 0.0
2018-Jul-17 00:57N 38°52' W 077°01'1 2.7
2018-Jul-17 00:29N 38°51' W 077°01'0 0.3
2018-Jul-16 23:29N 38°52' W 077°02'1 1.6
2018-Jul-16 22:54N 38°52' W 077°01'0 0.0
2018-Jul-16 22:28N 38°52' W 077°01'0 0.0
2018-Jul-16 21:59N 38°52' W 077°01'0 0.0
2018-Jul-16 21:27N 38°52' W 077°01'0 0.0
2018-Jul-16 20:57N 38°52' W 077°01'0 0.0
2018-Jul-16 20:29N 38°52' W 077°01'0 0.0
2018-Jul-16 19:59N 38°52' W 077°01'0 0.0
2018-Jul-16 19:29N 38°52' W 077°01'0 0.0
2018-Jul-16 18:58N 38°52' W 077°01'0 0.0
2018-Jul-16 18:29N 38°52' W 077°01'0 0.0
2018-Jul-16 17:59N 38°52' W 077°01'0 0.0
2018-Jul-16 17:29N 38°52' W 077°01'0 0.0
2018-Jul-16 16:59N 38°52' W 077°01'0 0.0
2018-Jul-16 16:26N 38°52' W 077°01'0 0.0
2018-Jul-16 15:59N 38°52' W 077°01'0 0.2
2018-Jul-16 15:28N 38°52' W 077°01'0 0.1
2018-Jul-16 15:00N 38°52' W 077°01'0 0.0
2018-Jul-16 14:31N 38°52' W 077°01'0 0.0
2018-Jul-16 14:00N 38°52' W 077°01'0 0.1
2018-Jul-16 13:29N 38°52' W 077°01'0 0.0
2018-Jul-16 12:59N 38°52' W 077°01'0 0.0
2018-Jul-16 12:30N 38°52' W 077°01'0 0.1
2018-Jul-16 11:58N 38°52' W 077°01'0 0.0
2018-Jul-16 11:27N 38°52' W 077°01'0 0.0
2018-Jul-16 10:55N 38°52' W 077°01'0 0.0
2018-Jul-16 10:28N 38°52' W 077°01'0 0.0
2018-Jul-16 09:56N 38°52' W 077°01'0 0.0
2018-Jul-16 09:29N 38°52' W 077°01'0 0.0
2018-Jul-16 09:00N 38°52' W 077°01'0 0.0
2018-Jul-16 08:30N 38°52' W 077°01'0 0.0
2018-Jul-16 07:58N 38°52' W 077°01'0 0.0
2018-Jul-16 07:30N 38°52' W 077°01'0 0.0
2018-Jul-16 06:58N 38°52' W 077°01'0 0.0
2018-Jul-16 06:29N 38°52' W 077°01'0 0.0
2018-Jul-16 06:01N 38°52' W 077°01'0 0.0
2018-Jul-16 05:28N 38°52' W 077°01'0 0.0
2018-Jul-16 04:55N 38°52' W 077°01'0 0.0
2018-Jul-16 04:30N 38°52' W 077°01'0 0.0
2018-Jul-16 03:59N 38°52' W 077°01'0 0.0
2018-Jul-16 03:27N 38°52' W 077°01'0 0.0
2018-Jul-16 02:58N 38°52' W 077°01'0 0.0
2018-Jul-16 02:29N 38°52' W 077°01'0 0.0
2018-Jul-16 01:57N 38°52' W 077°01'0 0.0
2018-Jul-16 01:29N 38°52' W 077°01'0 0.0
2018-Jul-16 00:58N 38°52' W 077°01'1 2.4
2018-Jul-16 00:28N 38°51' W 077°01'1 2.4
2018-Jul-15 23:59N 38°52' W 077°02'2 4.4
2018-Jul-15 23:27N 38°54' W 077°04'1 1.6
2018-Jul-15 23:00N 38°53' W 077°03'3 5.8
2018-Jul-15 22:31N 38°51' W 077°01'1 2.2
2018-Jul-15 21:57N 38°52' W 077°01'0 0.0
2018-Jul-15 21:29N 38°52' W 077°01'0 0.0
2018-Jul-15 21:00N 38°52' W 077°01'0 0.0
2018-Jul-15 20:28N 38°52' W 077°01'0 0.0
2018-Jul-15 19:59N 38°52' W 077°01'0 0.0
2018-Jul-15 19:27N 38°52' W 077°01'0 0.0
2018-Jul-15 18:55N 38°52' W 077°01'0 0.0
2018-Jul-15 18:26N 38°52' W 077°01'0 0.0
2018-Jul-15 17:56N 38°52' W 077°01'0 0.0
2018-Jul-15 17:26N 38°52' W 077°01'2 4.4
2018-Jul-15 16:59N 38°51' W 077°01'1 2.0
2018-Jul-15 16:28N 38°50' W 077°02'2 4.3
2018-Jul-15 15:58N 38°52' W 077°02'1 1.5
2018-Jul-15 15:26N 38°52' W 077°01'0 0.0
2018-Jul-15 15:00N 38°52' W 077°01'0 0.0
2018-Jul-15 14:25N 38°52' W 077°01'0 0.0
2018-Jul-15 13:56N 38°52' W 077°01'0 0.0
2018-Jul-15 13:27N 38°52' W 077°01'0 0.0
2018-Jul-15 12:59N 38°52' W 077°01'0 0.0
2018-Jul-15 12:30N 38°52' W 077°01'0 0.0
2018-Jul-15 03:10N 38°52' W 077°01'0 0.0
2018-Jul-15 03:00N 38°52' W 077°01'1 1.9
2018-Jul-15 02:29N 38°51' W 077°01'2 4.9
2018-Jul-15 02:00N 38°49' W 077°02'1 2.4
2018-Jul-15 01:30N 38°48' W 077°02'3 6.8
2018-Jul-15 01:00N 38°51' W 077°01'0 0.4
2018-Jul-15 00:30N 38°51' W 077°01'1 2.2
2018-Jul-14 23:59N 38°52' W 077°01'0 0.0
2018-Jul-14 23:29N 38°52' W 077°01'0 0.0
2018-Jul-14 23:00N 38°52' W 077°01'0 0.0
2018-Jul-14 22:09N 38°52' W 077°01'0 0.0
2018-Jul-14 21:56N 38°52' W 077°01'0 0.0
2018-Jul-14 21:26N 38°52' W 077°01'0 0.0
2018-Jul-14 20:56N 38°52' W 077°01'0 0.0
2018-Jul-14 20:27N 38°52' W 077°01'0 0.0
2018-Jul-14 19:56N 38°52' W 077°01'0 0.0
2018-Jul-14 19:26N 38°52' W 077°01'0 0.0
2018-Jul-14 18:56N 38°52' W 077°01'0 0.0
2018-Jul-14 18:29N 38°52' W 077°01'0 0.0
2018-Jul-14 18:00N 38°52' W 077°01'0 0.0
2018-Jul-14 17:27N 38°52' W 077°01'1 1.7
2018-Jul-14 17:00N 38°52' W 077°02'2 4.2
2018-Jul-14 16:28N 38°54' W 077°03'3 5.9
2018-Jul-14 16:00N 38°51' W 077°02'1 2.2
2018-Jul-14 15:30N 38°52' W 077°01'0 0.0
2018-Jul-14 15:00N 38°52' W 077°01'0 0.0
2018-Jul-14 14:30N 38°52' W 077°01'0 0.0
2018-Jul-14 13:30N 38°52' W 077°01'0 0.0
2018-Jul-14 13:00N 38°52' W 077°01'0 0.0
2018-Jul-14 12:30N 38°52' W 077°01'0 0.0
2018-Jul-14 12:00N 38°52' W 077°01'0 0.0
2018-Jul-14 02:50N 38°52' W 077°01'2 4.9
2018-Jul-14 02:26N 38°51' W 077°01'3 6.7
2018-Jul-14 02:00N 38°48' W 077°02'2 2.8
2018-Jul-14 01:27N 38°49' W 077°02'2 5.4
2018-Jul-14 01:00N 38°52' W 077°02'1 1.1
2018-Jul-14 00:30N 38°51' W 077°01'1 2.4
2018-Jul-14 00:00N 38°52' W 077°01'0 0.0
2018-Jul-13 23:29N 38°52' W 077°01'0 0.0
2018-Jul-13 22:55N 38°52' W 077°01'0 0.0
2018-Jul-13 22:30N 38°52' W 077°01'0 0.0
2018-Jul-13 21:56N 38°52' W 077°01'0 0.0
2018-Jul-13 21:28N 38°52' W 077°01'0 0.0
2018-Jul-13 21:00N 38°52' W 077°01'0 0.0
2018-Jul-13 20:30N 38°52' W 077°01'  

Dump ship's entire track history